Flight Track Log - Related Links

Times and Time Zones

All times are in EDT time to prevent confusion due to time zone crossing. See the SWA2032 flight status page for this flight to view local times or setup timezone preferences in your user account.

Time Position Orientation Groundspeed Altitude Reporting Facility
EDT Latitude Longitude Course Direction KTS MPH feet Rate Location/Type
Sun 11:40:51 PM 39.7167 -104.6167 159° South 268 308 10,500  Level Denver TRACON
Sun 11:41:13 PM 39.6947 -104.6100 167° South 284 327 11,100 3,614 Climbing Denver Center
Sun 11:42:14 PM 39.6006 -104.5703 162° South 337 388 15,500 3,659 Climbing Denver Center
Sun 11:43:16 PM 39.5042 -104.5453 169° South 353 406 18,600 2,976 Climbing Denver Center
Sun 11:44:17 PM 39.4017 -104.5125 166° South 372 428 21,600 2,951 Climbing Denver Center
Sun 11:45:00 PM 39.3539 -104.4979 173° South  Level FlightAware Approximate
Sun 11:45:18 PM 39.2978 -104.4678 162° South 392 451 24,600  Level Denver Center
Sun 11:46:19 PM 39.1969 -104.3906 149° Southeast 414 476 27,000 2,311 Climbing Denver Center
Sun 11:47:20 PM 39.0911 -104.3100 149° Southeast 430 495 29,300 2,066 Climbing Denver Center
Sun 11:48:21 PM 38.9800 -104.2275 150° Southeast 451 519 31,200 1,967 Climbing Denver Center
Sun 11:49:22 PM 38.8650 -104.1431 150° Southeast 471 542 33,300 1,918 Climbing Denver Center
Sun 11:50:23 PM 38.7439 -104.0547 150° Southeast 470 541 35,100 1,902 Climbing Denver Center
Sun 11:51:25 PM 38.6356 -103.9753 150° Southeast 468 539 37,200 2,000 Climbing Denver Center
Sun 11:52:26 PM 38.5119 -103.8850 150° Southeast 457 526 39,200 1,426 Climbing Denver Center
Sun 11:53:27 PM 38.4067 -103.8078 150° Southeast 455 524 40,100 885 Climbing Denver Center
Sun 11:54:28 PM 38.2994 -103.7306 151° Southeast 460 529 41,000 443 Climbing Denver Center
Sun 11:55:29 PM 38.1736 -103.6411 151° Southeast 461 531 41,000  Level Denver Center
Sun 11:56:30 PM 38.0675 -103.5639 150° Southeast 458 527 41,000  Level Denver Center
Sun 11:57:31 PM 37.9617 -103.4881 151° Southeast 457 526 41,000  Level Denver Center
Sun 11:58:33 PM 37.8375 -103.3992 151° Southeast 457 526 41,000  Level Denver Center
Sun 11:59:34 PM 37.7317 -103.3231 150° Southeast 454 522 41,000  Level Denver Center
Mon 12:00:35 AM 37.6083 -103.2347 150° Southeast 455 524 41,000  Level Denver Center
Mon 12:01:36 AM 37.5014 -103.1592 151° Southeast 456 525 41,000  Level Denver Center
Mon 12:02:37 AM 37.3936 -103.0836 151° Southeast 460 529 41,000  Level Denver Center
Mon 12:03:38 AM 37.2683 -102.9958 151° Southeast 461 531 41,000  Level Denver Center
Mon 12:04:45 AM 37.1419 -102.9094 151° Southeast 463 533 41,000  Level Albuquerque Center
Mon 12:05:46 AM 37.0347 -102.8339 151° Southeast 462 532 41,000  Level Albuquerque Center
Mon 12:06:47 AM 36.9283 -102.7586 151° Southeast 458 527 41,000  Level Albuquerque Center
Mon 12:07:48 AM 36.8025 -102.6733 152° Southeast 460 529 41,000  Level Albuquerque Center
Mon 12:08:49 AM 36.6944 -102.5997 151° Southeast 461 531 41,000  Level Albuquerque Center
Mon 12:09:50 AM 36.5858 -102.5236 151° Southeast 461 531 41,000  Level Albuquerque Center
Mon 12:10:51 AM 36.4731 -102.4461 151° Southeast 462 532 41,000  Level Albuquerque Center
Mon 12:11:52 AM 36.3606 -102.3697 151° Southeast 463 533 41,000  Level Albuquerque Center
Mon 12:12:53 AM 36.2467 -102.2939 152° Southeast 464 534 41,000  Level Albuquerque Center
Mon 12:13:54 AM 36.1336 -102.2147 151° Southeast 466 536 41,000  Level Albuquerque Center
Mon 12:14:55 AM 36.0200 -102.1386 152° Southeast 465 535 41,000  Level Albuquerque Center
Mon 12:15:56 AM 35.8831 -102.0478 152° Southeast 466 536 41,000  Level Albuquerque Center
Mon 12:16:57 AM 35.7697 -101.9714 151° Southeast 465 535 41,000  Level Albuquerque Center
Mon 12:17:58 AM 35.6564 -101.8953 151° Southeast 464 534 41,000  Level Albuquerque Center
Mon 12:18:59 AM 35.5428 -101.8194 151° Southeast 466 536 41,000  Level Albuquerque Center
Mon 12:20:00 AM 35.4294 -101.7436 151° Southeast 468 539 41,000  Level Albuquerque Center
Mon 12:21:01 AM 35.3128 -101.6675 152° Southeast 469 540 41,000  Level Albuquerque Center
Mon 12:22:02 AM 35.1967 -101.5908 152° Southeast 470 541 41,000  Level Albuquerque Center
Mon 12:23:03 AM 35.0811 -101.5150 152° Southeast 467 537 41,000  Level Albuquerque Center
Mon 12:24:03 AM 34.9586 -101.4331 151° Southeast 468 539 41,000  Level Albuquerque Center
Mon 12:25:04 AM 34.8458 -101.3578 151° Southeast 464 534 41,000  Level Albuquerque Center
Mon 12:26:05 AM 34.7314 -101.2825 152° Southeast 467 537 41,000  Level Albuquerque Center
Mon 12:27:06 AM 34.6147 -101.2086 152° Southeast 471 542 41,000  Level Albuquerque Center
Mon 12:28:07 AM 34.4997 -101.1350 152° Southeast 469 540 41,000  Level Albuquerque Center
Mon 12:29:08 AM 34.3853 -101.0603 152° Southeast 468 539 41,000  Level Albuquerque Center
Mon 12:29:39 AM 34.3175 -101.0142 151° Southeast 465 535 41,000  Level Fort Worth Center
Mon 12:30:39 AM 34.2008 -100.9414 153° Southeast 465 535 41,000  Level Fort Worth Center
Mon 12:31:39 AM 34.0881 -100.8692 152° Southeast 465 535 41,000  Level Fort Worth Center
Mon 12:32:39 AM 33.9644 -100.8042 156° South 465 535 41,000  Level Fort Worth Center
Mon 12:33:39 AM 33.8431 -100.7419 157° South 470 541 41,000  Level Fort Worth Center
Mon 12:34:39 AM 33.7258 -100.6750 155° Southeast 475 547 41,000  Level Fort Worth Center
Mon 12:35:39 AM 33.6064 -100.6133 157° South 475 547 41,000  Level Fort Worth Center
Mon 12:36:39 AM 33.4892 -100.5492 155° Southeast 470 541 41,000  Level Fort Worth Center
Mon 12:37:39 AM 33.3675 -100.4853 156° South 470 541 41,000  Level Fort Worth Center
Mon 12:38:39 AM 33.2503 -100.4214 155° Southeast 475 547 41,000  Level Fort Worth Center
Mon 12:39:39 AM 33.1306 -100.3603 157° South 475 547 41,000  Level Fort Worth Center
Mon 12:40:39 AM 33.0111 -100.2969 156° South 475 547 41,000  Level Fort Worth Center
Mon 12:41:39 AM 32.8933 -100.2339 156° South 475 547 41,000  Level Fort Worth Center
Mon 12:42:39 AM 32.7717 -100.1731 157° South 475 547 41,000  Level Fort Worth Center
Mon 12:43:40 AM 32.6519 -100.1103 156° South 475 547 41,000  Level Fort Worth Center
Mon 12:44:39 AM 32.5300 -100.0500 157° South 475 547 41,000  Level Fort Worth Center
Mon 12:45:39 AM 32.4125 -99.9850 155° Southeast 470 541 41,000  Level Fort Worth Center
Mon 12:46:39 AM 32.3031 -99.9278 156° South 475 547 41,000  Level Fort Worth Center
Mon 12:47:40 AM 32.1853 -99.8656 156° South 475 547 41,000  Level Fort Worth Center
Mon 12:49:13 AM 32.0047 -99.7717 156° South 470 541 41,000  Level Houston Center
Mon 12:50:13 AM 31.8856 -99.7097 156° South 469 540 41,000  Level Houston Center
Mon 12:51:13 AM 31.7667 -99.6483 156° South 466 536 41,000  Level Houston Center
Mon 12:52:14 AM 31.6475 -99.5869 156° South 467 537 41,000 -99 Level Houston Center
Mon 12:53:14 AM 31.5272 -99.5272 157° South 468 539 40,800 -1,300 Descending Houston Center
Mon 12:54:14 AM 31.3992 -99.4606 156° South 459 528 38,400 -2,400 Descending Houston Center
Mon 12:55:14 AM 31.2928 -99.4072 157° South 459 528 36,000 -2,281 Descending Houston Center
Mon 12:56:15 AM 31.1708 -99.3461 157° South 473 544 33,800 -2,231 Descending Houston Center
Mon 12:57:15 AM 31.0450 -99.2814 156° South 490 564 31,500 -2,500 Descending Houston Center
Mon 12:58:15 AM 30.9214 -99.2194 157° South 484 557 28,800 -2,600 Descending Houston Center
Mon 12:59:15 AM 30.8014 -99.1594 157° South 473 544 26,300 -2,628 Descending Houston Center
Mon 01:00:16 AM 30.6731 -99.0956 157° South 446 513 23,500 -2,529 Descending Houston Center
Mon 01:01:16 AM 30.5647 -99.0414 157° South 427 491 21,200 -2,300 Descending Houston Center
Mon 01:02:16 AM 30.4592 -98.9894 157° South 412 474 18,900 -2,150 Descending Houston Center
Mon 01:03:16 AM 30.3583 -98.9386 156° South 398 458 16,900 -2,200 Descending Houston Center
Mon 01:04:16 AM 30.2597 -98.8886 156° South 381 438 14,500 -2,333 Descending Houston Center
Mon 01:04:46 AM 30.2164 -98.8683 158° South 375 432 13,400 -2,164 Descending Houston Center
Mon 01:05:17 AM 30.1647 -98.8419 156° South 371 427 12,300 -2,164 Descending Houston Center
Mon 01:05:47 AM 30.1219 -98.8236 160° South 362 417 11,200 -2,000 Descending Houston Center
Mon 01:06:17 AM 30.0744 -98.7972 154° Southeast 355 409 10,300 -1,400 Descending Houston Center
Mon 01:06:47 AM 30.0342 -98.7786 158° South 341 392 9,800 -800 Descending Houston Center
Mon 01:07:17 AM 29.9922 -98.7567 156° South 320 368 9,500 -984 Descending Houston Center
Mon 01:07:48 AM 29.9594 -98.7414 158° South 290 334 8,800 -1,500 Descending Houston Center
Mon 01:08:17 AM 29.9186 -98.7214 157° South 286 329 8,000 -1,900 Descending Houston Center
Mon 01:08:48 AM 29.8783 -98.7028 158° South 284 327 6,900 -1,700 Descending Houston Center
Mon 01:09:17 AM 29.8436 -98.6839 155° Southeast 293 337 6,300 -1,377 Descending Houston Center
Mon 01:09:49 AM 29.8036 -98.6661 159° South 289 333 5,500 -1,300 Descending Houston Center
Mon 01:10:17 AM 29.7714 -98.6489 155° Southeast 284 327 5,000 -1,180 Descending Houston Center
Mon 01:10:50 AM 29.7333 -98.6311 158° South 276 318 4,300 -885 Descending Houston Center
Mon 01:11:18 AM 29.7039 -98.6156 155° Southeast 268 308 4,100 -600 Descending Houston Center
Mon 01:11:50 AM 29.6717 -98.6000 157° South 242 278 3,700 -700 Descending Houston Center
Mon 01:12:18 AM 29.6436 -98.5864 157° South 240 276 3,400 -885 Descending Houston Center
Mon 01:12:51 AM 29.6172 -98.5775 164° South 189 217 2,800 -800 Descending Houston Center
Mon 01:13:18 AM 29.6008 -98.5603 138° Southeast 180 207 2,600 -700 Descending Houston Center
Mon 01:13:51 AM 29.5869 -98.5450 136° Southeast 136 157 2,100 -700 Descending Houston Center
Mon 01:14:18 AM 29.5769 -98.5292 126° Southeast 134 154 1,900 -590 Descending Houston Center
Mon 01:14:52 AM 29.5653 -98.5164 136° Southeast 112 129 1,500 -600 Descending Houston Center
Mon 01:15:18 AM 29.5561 -98.5006 124° Southeast 119 137 1,300 -419 Descending Houston Center
Mon 01:16:18 AM 29.5369 -98.4767 133° Southeast 118 136 900 -400 Descending Houston Center
Mon 01:18:00 AM 29.5333 -98.4667 156° South  Level FlightAware Approximate
Mon 01:25:00 AM 29.5340 -98.4691 156° South  Level Estimated

Login

Don't have an account? Register now (free) for customized features, flight alerts, and more!